Terminal Aerodrome Forecast
Issued by NWS

Home | Current Version | Previous Version | Text Only | Print | Product List | Glossary On
Versions: 1 2 3 4 5 6 7 8 9 10 11 12 13 14 15 16 17
000
FTUS42 KGSP 290535
TAFGMU
TAF
KGMU 290535Z 2906/3006 03005KT P6SM FEW250
     FM291000 03006KT P6SM SCT040 SCT250
     FM292000 05009KT P6SM FEW250
     FM300100 06005KT P6SM FEW140=

USA.gov is the U.S. government's official web portal to all federal, state and local government web resources and services.